createdAt,value
2022-11-21T00:00:35.549Z,6.32
2022-11-21T00:05:43.821Z,6.32
2022-11-21T00:10:46.110Z,6.36
2022-11-21T00:15:48.212Z,6.29
2022-11-21T00:20:49.517Z,6.34
2022-11-21T00:25:50.813Z,6.34
2022-11-21T00:30:52.226Z,6.40
2022-11-21T00:35:53.558Z,6.33
2022-11-21T00:40:54.896Z,6.34
2022-11-21T00:45:56.230Z,6.32
2022-11-21T00:50:57.655Z,6.38
2022-11-21T00:55:59.031Z,6.45
2022-11-21T01:01:10.187Z,6.52
2022-11-21T01:06:14.276Z,6.47
2022-11-21T01:11:17.978Z,6.38
2022-11-21T01:16:21.645Z,6.39
2022-11-21T01:21:25.376Z,6.43
2022-11-21T01:26:29.612Z,6.48
2022-11-21T01:31:31.691Z,6.50
2022-11-21T01:36:34.219Z,6.58
2022-11-21T01:41:38.766Z,6.66
2022-11-21T01:46:40.120Z,6.48
2022-11-21T01:51:51.688Z,6.59
2022-11-21T01:57:00.952Z,6.58
2022-11-21T02:02:05.223Z,6.49
2022-11-21T02:07:07.836Z,6.59
2022-11-21T02:12:16.396Z,6.57
2022-11-21T02:17:18.513Z,6.60
2022-11-21T02:22:26.007Z,6.55
2022-11-21T02:27:28.171Z,6.52
2022-11-21T02:32:35.952Z,6.52
2022-11-21T02:37:37.562Z,6.44
2022-11-21T02:43:00.298Z,6.53
2022-11-21T02:48:04.225Z,6.55
2022-11-21T02:53:08.404Z,6.54
2022-11-21T02:58:10.438Z,6.59
2022-11-21T03:03:12.066Z,6.62
2022-11-21T03:08:13.390Z,6.77
2022-11-21T03:13:14.688Z,6.84
2022-11-21T03:18:15.964Z,6.90
2022-11-21T03:23:17.366Z,6.84
2022-11-21T03:28:18.713Z,6.82
2022-11-21T03:33:20.032Z,6.76
2022-11-21T03:38:21.333Z,6.75
2022-11-21T03:43:22.737Z,6.79
2022-11-21T03:48:24.063Z,6.76
2022-11-21T03:53:25.414Z,6.84
2022-11-21T03:58:26.742Z,6.81
2022-11-21T04:03:28.052Z,6.87
2022-11-21T04:08:29.337Z,6.90
2022-11-21T04:13:30.657Z,6.86
2022-11-21T04:18:34.216Z,6.96
2022-11-21T04:23:35.844Z,6.98
2022-11-21T04:28:37.186Z,7.05
2022-11-21T04:33:39.530Z,7.13
2022-11-21T04:38:40.896Z,7.15
2022-11-21T04:43:42.265Z,7.16
2022-11-21T04:48:43.574Z,7.14
2022-11-21T04:53:44.944Z,7.08
2022-11-21T04:58:46.249Z,7.09
2022-11-21T05:03:47.556Z,7.22
2022-11-21T05:08:52.681Z,7.16
2022-11-21T05:13:55.433Z,7.23
2022-11-21T05:18:56.712Z,7.14
2022-11-21T05:23:58.102Z,7.06
2022-11-21T05:28:59.521Z,6.96
2022-11-21T05:34:00.899Z,6.98
2022-11-21T05:39:02.222Z,7.03
2022-11-21T05:44:03.700Z,6.90
2022-11-21T05:49:05.221Z,6.85
2022-11-21T05:54:06.738Z,6.85
2022-11-21T05:59:08.656Z,6.98
2022-11-21T06:04:10.590Z,7.07
2022-11-21T06:09:11.876Z,7.12
2022-11-21T06:14:13.162Z,7.10
2022-11-21T06:19:14.565Z,7.07
2022-11-21T06:24:20.766Z,6.87
2022-11-21T06:29:23.376Z,6.86
2022-11-21T06:34:27.034Z,6.79
2022-11-21T06:39:28.622Z,6.77
2022-11-21T06:44:30.284Z,6.93
2022-11-21T06:49:31.729Z,6.99
2022-11-21T06:54:33.645Z,6.94
2022-11-21T06:59:35.289Z,6.93
2022-11-21T07:04:36.649Z,7.03
2022-11-21T07:09:37.963Z,7.06
2022-11-21T07:14:39.302Z,7.08
2022-11-21T07:19:41.207Z,7.15
2022-11-21T07:24:42.791Z,7.15
2022-11-21T07:29:44.192Z,7.16
2022-11-21T07:34:45.541Z,7.15
2022-11-21T07:39:46.877Z,7.15
2022-11-21T07:44:48.153Z,7.25
2022-11-21T07:49:49.493Z,7.33
2022-11-21T07:54:51.016Z,7.33
2022-11-21T07:59:52.313Z,7.39
2022-11-21T08:04:54.033Z,7.44
2022-11-21T08:09:55.490Z,7.55
2022-11-21T08:14:56.828Z,7.61
2022-11-21T08:20:00.245Z,7.61
2022-11-21T08:25:01.583Z,7.61
2022-11-21T08:30:05.095Z,7.64
2022-11-21T08:35:06.956Z,7.73
2022-11-21T08:40:08.923Z,7.86
2022-11-21T08:45:10.442Z,7.77
2022-11-21T08:50:11.787Z,7.89
2022-11-21T08:55:13.128Z,8.22
2022-11-21T09:00:15.059Z,8.26
2022-11-21T09:05:16.509Z,8.30
2022-11-21T09:10:17.921Z,8.17
2022-11-21T09:15:37.832Z,8.21
2022-11-21T09:20:42.246Z,8.00
2022-11-21T09:25:44.406Z,7.82
2022-11-21T09:30:46.142Z,7.74
2022-11-21T09:35:48.035Z,8.06
2022-11-21T09:40:49.541Z,8.34
2022-11-21T09:45:55.080Z,8.66
2022-11-21T09:51:05.932Z,9.71
2022-11-21T09:56:15.584Z,10.47
2022-11-21T10:01:17.473Z,11.03
2022-11-21T10:06:25.954Z,11.95
2022-11-21T10:12:14.139Z,11.51
2022-11-21T10:17:33.762Z,11.92
2022-11-21T10:22:45.010Z,14.90
2022-11-21T10:27:55.514Z,18.89
2022-11-21T10:33:01.564Z,20.11
2022-11-21T10:38:14.591Z,21.89
2022-11-21T10:43:59.333Z,20.94
2022-11-21T10:49:03.013Z,18.23
2022-11-21T10:54:29.354Z,14.37
2022-11-21T10:59:31.502Z,12.36
2022-11-21T11:04:45.681Z,12.26
2022-11-21T11:09:48.979Z,16.46
2022-11-21T11:14:52.978Z,15.67
2022-11-21T11:20:06.352Z,14.91
2022-11-21T11:25:09.643Z,13.39
2022-11-21T11:30:15.665Z,12.29
2022-11-21T11:35:16.954Z,11.85
2022-11-21T11:40:21.235Z,11.35
2022-11-21T11:46:09.620Z,10.82
2022-11-21T11:51:41.754Z,10.50
2022-11-21T11:56:43.393Z,10.10
2022-11-21T12:02:16.584Z,9.85
2022-11-21T12:13:16.186Z,10.95
2022-11-21T12:18:20.425Z,10.38
2022-11-21T12:23:24.054Z,10.30
2022-11-21T12:28:43.468Z,10.74
2022-11-21T12:34:04.228Z,12.14
2022-11-21T12:39:32.404Z,16.92
2022-11-21T12:44:39.972Z,22.09
2022-11-21T12:50:06.177Z,22.04
2022-11-21T12:55:35.147Z,21.68
2022-11-21T13:01:03.340Z,19.77
2022-11-21T13:06:06.838Z,19.46
2022-11-21T13:12:00.995Z,24.11
2022-11-21T13:17:24.366Z,23.47
2022-11-21T13:22:37.707Z,23.45
2022-11-21T13:27:41.033Z,22.19
2022-11-21T13:32:45.107Z,18.94
2022-11-21T13:37:49.179Z,16.19
2022-11-21T13:43:32.155Z,14.58
2022-11-21T13:48:30.695Z,13.64
2022-11-21T13:53:41.606Z,13.22
2022-11-21T13:59:00.445Z,12.87
2022-11-21T14:04:07.732Z,12.42
2022-11-21T14:09:48.770Z,12.04
2022-11-21T14:15:13.129Z,11.78
2022-11-21T14:20:19.957Z,11.74
2022-11-21T14:25:33.740Z,11.71
2022-11-21T14:30:37.907Z,11.68
2022-11-21T14:35:39.753Z,11.37
2022-11-21T14:40:41.029Z,11.06
2022-11-21T14:45:49.073Z,10.77
2022-11-21T14:50:50.570Z,10.46
2022-11-21T14:55:54.673Z,10.24
2022-11-21T15:01:05.183Z,10.05
2022-11-21T15:06:10.710Z,9.90
2022-11-21T15:11:13.870Z,9.78
2022-11-21T15:16:15.585Z,9.59
2022-11-21T15:21:17.041Z,9.40
2022-11-21T15:26:32.165Z,9.25
2022-11-21T15:31:33.513Z,9.12
2022-11-21T15:36:34.901Z,9.04
2022-11-21T15:41:36.936Z,8.93
2022-11-21T15:46:42.064Z,8.78
2022-11-21T15:57:09.109Z,8.59
2022-11-21T16:02:13.409Z,8.54
2022-11-21T16:07:14.764Z,8.47
2022-11-21T16:12:16.056Z,8.35
2022-11-21T16:17:17.403Z,8.27
2022-11-21T16:22:18.809Z,8.23
2022-11-21T16:27:20.153Z,8.19
2022-11-21T16:32:21.543Z,8.13
2022-11-21T16:37:22.870Z,8.09
2022-11-21T16:42:24.163Z,8.04
2022-11-21T16:47:25.493Z,7.96
2022-11-21T16:52:26.855Z,7.86
2022-11-21T16:57:28.421Z,7.81
2022-11-21T17:02:30.060Z,7.76
2022-11-21T17:07:32.851Z,7.68
2022-11-21T17:12:41.194Z,7.64
2022-11-21T17:17:42.982Z,7.63
2022-11-21T17:22:44.329Z,7.60
2022-11-21T17:27:47.057Z,7.58
2022-11-21T17:32:48.537Z,7.65
2022-11-21T17:37:49.874Z,7.63
2022-11-21T17:42:51.169Z,7.60
2022-11-21T17:47:52.559Z,7.69
2022-11-21T17:52:54.063Z,7.65
2022-11-21T17:57:55.343Z,7.67
2022-11-21T18:02:56.807Z,7.62
2022-11-21T18:07:58.440Z,7.68
2022-11-21T18:13:00.009Z,7.63
2022-11-21T18:18:01.344Z,7.58
2022-11-21T18:23:03.120Z,7.57
2022-11-21T18:28:05.619Z,7.52
2022-11-21T18:33:06.945Z,7.49
2022-11-21T18:38:08.279Z,7.51
2022-11-21T18:43:09.670Z,7.53
2022-11-21T18:48:12.753Z,7.47
2022-11-21T18:53:14.127Z,7.59
2022-11-21T18:58:15.582Z,7.57
2022-11-21T19:03:19.466Z,7.60
2022-11-21T19:08:20.985Z,7.58
2022-11-21T19:13:22.409Z,7.53
2022-11-21T19:18:23.727Z,7.61
2022-11-21T19:23:25.269Z,7.64
2022-11-21T19:28:28.418Z,7.53
2022-11-21T19:33:31.679Z,7.41
2022-11-21T19:38:33.886Z,7.36
2022-11-21T19:43:35.269Z,7.35
2022-11-21T19:48:36.632Z,7.40
2022-11-21T19:53:38.821Z,7.40
2022-11-21T19:58:41.516Z,7.36
2022-11-21T20:03:45.276Z,7.34
2022-11-21T20:08:58.164Z,7.31
2022-11-21T20:13:59.920Z,7.32
2022-11-21T20:19:06.674Z,7.38
2022-11-21T20:24:08.842Z,7.37
2022-11-21T20:29:13.102Z,7.40
2022-11-21T20:34:14.658Z,7.42
2022-11-21T20:39:17.935Z,7.41
2022-11-21T20:49:42.649Z,7.47
2022-11-21T20:54:44.121Z,7.55
2022-11-21T20:59:45.496Z,7.51
2022-11-21T21:04:46.956Z,7.57
2022-11-21T21:09:48.257Z,7.59
2022-11-21T21:14:49.528Z,7.59
2022-11-21T21:19:50.882Z,7.53
2022-11-21T21:24:52.167Z,7.58
2022-11-21T21:29:53.531Z,7.48
2022-11-21T21:34:54.837Z,7.44
2022-11-21T21:39:56.219Z,7.37
2022-11-21T21:44:57.565Z,7.30
2022-11-21T21:49:58.865Z,7.31
2022-11-21T21:55:00.191Z,7.34
2022-11-21T22:00:01.521Z,7.36
2022-11-21T22:05:03.110Z,7.32
2022-11-21T22:10:06.152Z,7.22
2022-11-21T22:15:08.008Z,7.17
2022-11-21T22:20:09.677Z,7.27
2022-11-21T22:25:10.969Z,7.23
2022-11-21T22:30:14.290Z,7.23
2022-11-21T22:35:15.679Z,7.18
2022-11-21T22:40:18.418Z,7.12
2022-11-21T22:45:19.761Z,7.19
2022-11-21T22:50:21.108Z,7.20
2022-11-21T22:55:22.555Z,7.14
2022-11-21T23:00:23.997Z,7.10
2022-11-21T23:05:25.377Z,7.07
2022-11-21T23:10:26.661Z,7.08
2022-11-21T23:15:27.955Z,7.07
2022-11-21T23:20:29.259Z,7.10
2022-11-21T23:25:30.631Z,7.13
2022-11-21T23:30:32.007Z,7.11
2022-11-21T23:35:33.359Z,7.12
2022-11-21T23:40:34.745Z,7.08
2022-11-21T23:45:36.151Z,7.03
2022-11-21T23:50:37.489Z,7.08
2022-11-21T23:55:38.839Z,7.04
